sensor_id;sensor_type;location;lat;lon;timestamp;P1;durP1;ratioP1;P2;durP2;ratioP2
39222;SDS011;24936;46.328;11.026;2023-06-24T00:02:08;1.25;;;0.80;;
39222;SDS011;24936;46.328;11.026;2023-06-24T00:06:59;1.25;;;0.82;;
39222;SDS011;24936;46.328;11.026;2023-06-24T00:09:28;1.65;;;1.00;;
39222;SDS011;24936;46.328;11.026;2023-06-24T00:11:55;1.30;;;0.70;;
39222;SDS011;24936;46.328;11.026;2023-06-24T00:14:21;1.52;;;0.80;;
39222;SDS011;24936;46.328;11.026;2023-06-24T00:16:49;1.08;;;0.68;;
39222;SDS011;24936;46.328;11.026;2023-06-24T00:19:25;1.77;;;1.00;;
39222;SDS011;24936;46.328;11.026;2023-06-24T00:21:52;2.00;;;0.70;;
39222;SDS011;24936;46.328;11.026;2023-06-24T00:24:18;1.30;;;0.80;;
39222;SDS011;24936;46.328;11.026;2023-06-24T00:26:48;1.15;;;0.80;;
39222;SDS011;24936;46.328;11.026;2023-06-24T00:29:13;2.03;;;0.75;;
39222;SDS011;24936;46.328;11.026;2023-06-24T00:31:40;1.63;;;0.82;;
39222;SDS011;24936;46.328;11.026;2023-06-24T00:36:31;1.50;;;1.00;;
39222;SDS011;24936;46.328;11.026;2023-06-24T00:41:26;1.33;;;0.73;;
39222;SDS011;24936;46.328;11.026;2023-06-24T00:46:18;2.35;;;0.93;;
39222;SDS011;24936;46.328;11.026;2023-06-24T00:48:44;1.08;;;0.70;;
39222;SDS011;24936;46.328;11.026;2023-06-24T00:53:36;1.35;;;0.80;;
39222;SDS011;24936;46.328;11.026;2023-06-24T00:58:28;3.35;;;1.00;;
39222;SDS011;24936;46.328;11.026;2023-06-24T01:00:55;1.02;;;0.70;;
39222;SDS011;24936;46.328;11.026;2023-06-24T01:03:26;1.33;;;0.88;;
39222;SDS011;24936;46.328;11.026;2023-06-24T01:05:55;1.10;;;0.80;;
39222;SDS011;24936;46.328;11.026;2023-06-24T01:08:21;2.95;;;0.90;;
39222;SDS011;24936;46.328;11.026;2023-06-24T01:10:48;1.02;;;0.80;;
39222;SDS011;24936;46.328;11.026;2023-06-24T01:13:16;1.30;;;0.93;;
39222;SDS011;24936;46.328;11.026;2023-06-24T01:15:42;2.42;;;0.93;;
39222;SDS011;24936;46.328;11.026;2023-06-24T01:31:37;1.15;;;0.80;;
39222;SDS011;24936;46.328;11.026;2023-06-24T01:34:10;1.40;;;0.80;;
39222;SDS011;24936;46.328;11.026;2023-06-24T01:39:33;1.48;;;0.93;;
39222;SDS011;24936;46.328;11.026;2023-06-24T01:42:07;1.75;;;0.80;;
39222;SDS011;24936;46.328;11.026;2023-06-24T01:44:37;1.50;;;0.80;;
39222;SDS011;24936;46.328;11.026;2023-06-24T01:47:05;1.45;;;0.90;;
39222;SDS011;24936;46.328;11.026;2023-06-24T01:49:32;3.38;;;0.80;;
39222;SDS011;24936;46.328;11.026;2023-06-24T01:52:03;1.63;;;0.93;;
39222;SDS011;24936;46.328;11.026;2023-06-24T01:54:31;3.88;;;1.00;;
39222;SDS011;24936;46.328;11.026;2023-06-24T01:56:58;1.80;;;1.00;;
39222;SDS011;24936;46.328;11.026;2023-06-24T01:59:28;5.40;;;1.00;;
39222;SDS011;24936;46.328;11.026;2023-06-24T02:01:55;1.13;;;0.80;;
39222;SDS011;24936;46.328;11.026;2023-06-24T02:04:22;2.15;;;0.90;;
39222;SDS011;24936;46.328;11.026;2023-06-24T02:06:49;1.50;;;0.88;;
39222;SDS011;24936;46.328;11.026;2023-06-24T02:09:19;1.45;;;0.80;;
39222;SDS011;24936;46.328;11.026;2023-06-24T02:11:46;1.50;;;0.90;;
39222;SDS011;24936;46.328;11.026;2023-06-24T02:16:39;1.20;;;0.77;;
39222;SDS011;24936;46.328;11.026;2023-06-24T02:19:07;1.45;;;0.80;;
39222;SDS011;24936;46.328;11.026;2023-06-24T02:21:34;1.50;;;0.77;;
39222;SDS011;24936;46.328;11.026;2023-06-24T02:24:01;1.27;;;0.70;;
39222;SDS011;24936;46.328;11.026;2023-06-24T02:26:27;1.55;;;0.75;;
39222;SDS011;24936;46.328;11.026;2023-06-24T02:28:53;2.10;;;1.02;;
39222;SDS011;24936;46.328;11.026;2023-06-24T02:31:19;1.00;;;0.70;;
39222;SDS011;24936;46.328;11.026;2023-06-24T02:33:45;2.03;;;0.80;;
39222;SDS011;24936;46.328;11.026;2023-06-24T02:36:11;2.03;;;0.70;;
39222;SDS011;24936;46.328;11.026;2023-06-24T02:38:36;1.13;;;0.63;;
39222;SDS011;24936;46.328;11.026;2023-06-24T02:41:02;0.60;;;0.45;;
39222;SDS011;24936;46.328;11.026;2023-06-24T02:43:29;1.20;;;0.68;;
39222;SDS011;24936;46.328;11.026;2023-06-24T02:48:22;1.15;;;0.63;;
39222;SDS011;24936;46.328;11.026;2023-06-24T02:50:48;2.13;;;0.63;;
39222;SDS011;24936;46.328;11.026;2023-06-24T02:55:40;1.00;;;0.60;;
39222;SDS011;24936;46.328;11.026;2023-06-24T02:58:07;1.05;;;0.50;;
39222;SDS011;24936;46.328;11.026;2023-06-24T03:00:36;1.52;;;0.70;;
39222;SDS011;24936;46.328;11.026;2023-06-24T03:03:03;1.33;;;0.50;;
39222;SDS011;24936;46.328;11.026;2023-06-24T03:05:30;0.93;;;0.50;;
39222;SDS011;24936;46.328;11.026;2023-06-24T03:07:58;0.90;;;0.50;;
39222;SDS011;24936;46.328;11.026;2023-06-24T03:12:49;0.88;;;0.45;;
39222;SDS011;24936;46.328;11.026;2023-06-24T03:17:40;0.50;;;0.38;;
39222;SDS011;24936;46.328;11.026;2023-06-24T03:20:06;0.90;;;0.40;;
39222;SDS011;24936;46.328;11.026;2023-06-24T03:22:33;0.60;;;0.40;;
39222;SDS011;24936;46.328;11.026;2023-06-24T03:27:24;1.10;;;0.60;;
39222;SDS011;24936;46.328;11.026;2023-06-24T03:32:14;1.20;;;0.70;;
39222;SDS011;24936;46.328;11.026;2023-06-24T03:37:05;0.80;;;0.50;;
39222;SDS011;24936;46.328;11.026;2023-06-24T03:39:31;1.17;;;0.80;;
39222;SDS011;24936;46.328;11.026;2023-06-24T03:41:56;1.02;;;0.70;;
39222;SDS011;24936;46.328;11.026;2023-06-24T03:46:47;0.70;;;0.60;;
39222;SDS011;24936;46.328;11.026;2023-06-24T03:49:13;1.25;;;0.50;;
39222;SDS011;24936;46.328;11.026;2023-06-24T03:51:38;0.90;;;0.50;;
39222;SDS011;24936;46.328;11.026;2023-06-24T03:54:04;0.90;;;0.57;;
39222;SDS011;24936;46.328;11.026;2023-06-24T03:56:29;2.10;;;0.60;;
39222;SDS011;24936;46.328;11.026;2023-06-24T04:01:20;0.90;;;0.50;;
39222;SDS011;24936;46.328;11.026;2023-06-24T04:06:11;1.55;;;0.65;;
39222;SDS011;24936;46.328;11.026;2023-06-24T04:08:37;1.05;;;0.50;;
39222;SDS011;24936;46.328;11.026;2023-06-24T04:11:08;0.80;;;0.50;;
39222;SDS011;24936;46.328;11.026;2023-06-24T04:15:59;0.45;;;0.28;;
39222;SDS011;24936;46.328;11.026;2023-06-24T04:20:50;0.55;;;0.35;;
39222;SDS011;24936;46.328;11.026;2023-06-24T04:25:41;0.80;;;0.30;;
39222;SDS011;24936;46.328;11.026;2023-06-24T04:28:07;1.15;;;0.40;;
39222;SDS011;24936;46.328;11.026;2023-06-24T04:33:00;0.70;;;0.30;;
39222;SDS011;24936;46.328;11.026;2023-06-24T04:37:51;0.47;;;0.35;;
39222;SDS011;24936;46.328;11.026;2023-06-24T04:42:42;2.60;;;0.40;;
39222;SDS011;24936;46.328;11.026;2023-06-24T04:45:08;0.90;;;0.35;;
39222;SDS011;24936;46.328;11.026;2023-06-24T04:49:59;0.57;;;0.32;;
39222;SDS011;24936;46.328;11.026;2023-06-24T04:54:50;0.70;;;0.40;;
39222;SDS011;24936;46.328;11.026;2023-06-24T04:59:57;0.73;;;0.47;;
39222;SDS011;24936;46.328;11.026;2023-06-24T05:04:49;0.38;;;0.35;;
39222;SDS011;24936;46.328;11.026;2023-06-24T05:07:17;0.65;;;0.40;;
39222;SDS011;24936;46.328;11.026;2023-06-24T05:12:09;0.50;;;0.30;;
39222;SDS011;24936;46.328;11.026;2023-06-24T05:14:35;0.50;;;0.30;;
39222;SDS011;24936;46.328;11.026;2023-06-24T05:19:26;0.80;;;0.43;;
39222;SDS011;24936;46.328;11.026;2023-06-24T05:24:17;0.70;;;0.40;;
39222;SDS011;24936;46.328;11.026;2023-06-24T05:29:09;0.95;;;0.40;;
39222;SDS011;24936;46.328;11.026;2023-06-24T05:31:36;0.32;;;0.30;;
39222;SDS011;24936;46.328;11.026;2023-06-24T05:36:27;0.40;;;0.25;;
39222;SDS011;24936;46.328;11.026;2023-06-24T05:41:18;0.50;;;0.30;;
39222;SDS011;24936;46.328;11.026;2023-06-24T05:46:09;0.35;;;0.22;;
39222;SDS011;24936;46.328;11.026;2023-06-24T05:51:00;0.50;;;0.40;;
39222;SDS011;24936;46.328;11.026;2023-06-24T05:55:50;1.20;;;0.70;;
39222;SDS011;24936;46.328;11.026;2023-06-24T05:58:16;1.10;;;0.60;;
39222;SDS011;24936;46.328;11.026;2023-06-24T06:03:07;1.10;;;0.43;;
39222;SDS011;24936;46.328;11.026;2023-06-24T06:07:57;1.25;;;0.60;;
39222;SDS011;24936;46.328;11.026;2023-06-24T06:10:23;0.75;;;0.47;;
39222;SDS011;24936;46.328;11.026;2023-06-24T06:15:14;0.60;;;0.40;;
39222;SDS011;24936;46.328;11.026;2023-06-24T06:20:06;0.70;;;0.40;;
39222;SDS011;24936;46.328;11.026;2023-06-24T06:25:02;1.67;;;0.40;;
39222;SDS011;24936;46.328;11.026;2023-06-24T06:27:28;1.65;;;0.60;;
39222;SDS011;24936;46.328;11.026;2023-06-24T06:32:19;1.20;;;0.60;;
39222;SDS011;24936;46.328;11.026;2023-06-24T06:37:09;1.23;;;0.50;;
39222;SDS011;24936;46.328;11.026;2023-06-24T06:42:00;0.80;;;0.50;;
39222;SDS011;24936;46.328;11.026;2023-06-24T06:44:26;0.80;;;0.47;;
39222;SDS011;24936;46.328;11.026;2023-06-24T06:49:16;1.25;;;0.50;;
39222;SDS011;24936;46.328;11.026;2023-06-24T06:51:42;0.85;;;0.47;;
39222;SDS011;24936;46.328;11.026;2023-06-24T06:54:07;0.85;;;0.50;;
39222;SDS011;24936;46.328;11.026;2023-06-24T06:56:32;1.40;;;0.55;;
39222;SDS011;24936;46.328;11.026;2023-06-24T06:58:58;1.30;;;0.50;;
39222;SDS011;24936;46.328;11.026;2023-06-24T07:01:23;0.85;;;0.40;;
39222;SDS011;24936;46.328;11.026;2023-06-24T07:03:49;0.60;;;0.40;;
39222;SDS011;24936;46.328;11.026;2023-06-24T07:06:15;0.50;;;0.30;;
39222;SDS011;24936;46.328;11.026;2023-06-24T07:08:44;0.80;;;0.40;;
39222;SDS011;24936;46.328;11.026;2023-06-24T07:11:09;0.30;;;0.30;;
39222;SDS011;24936;46.328;11.026;2023-06-24T07:13:35;2.38;;;0.40;;
39222;SDS011;24936;46.328;11.026;2023-06-24T07:16:00;1.10;;;0.38;;
39222;SDS011;24936;46.328;11.026;2023-06-24T07:18:25;2.97;;;0.30;;
39222;SDS011;24936;46.328;11.026;2023-06-24T07:20:55;0.55;;;0.45;;
39222;SDS011;24936;46.328;11.026;2023-06-24T07:23:21;0.50;;;0.40;;
39222;SDS011;24936;46.328;11.026;2023-06-24T07:25:46;0.70;;;0.40;;
39222;SDS011;24936;46.328;11.026;2023-06-24T07:28:12;0.55;;;0.30;;
39222;SDS011;24936;46.328;11.026;2023-06-24T07:30:37;0.73;;;0.25;;
39222;SDS011;24936;46.328;11.026;2023-06-24T07:33:03;0.50;;;0.30;;
39222;SDS011;24936;46.328;11.026;2023-06-24T07:35:30;0.30;;;0.30;;
39222;SDS011;24936;46.328;11.026;2023-06-24T07:37:57;0.82;;;0.40;;
39222;SDS011;24936;46.328;11.026;2023-06-24T07:40:23;0.98;;;0.40;;
39222;SDS011;24936;46.328;11.026;2023-06-24T07:42:48;0.28;;;0.20;;
39222;SDS011;24936;46.328;11.026;2023-06-24T07:45:14;0.45;;;0.30;;
39222;SDS011;24936;46.328;11.026;2023-06-24T07:47:39;0.63;;;0.30;;
39222;SDS011;24936;46.328;11.026;2023-06-24T07:50:05;0.60;;;0.20;;
39222;SDS011;24936;46.328;11.026;2023-06-24T07:52:31;0.30;;;0.30;;
39222;SDS011;24936;46.328;11.026;2023-06-24T07:54:57;0.30;;;0.20;;
39222;SDS011;24936;46.328;11.026;2023-06-24T07:57:22;0.50;;;0.20;;
39222;SDS011;24936;46.328;11.026;2023-06-24T07:59:47;0.30;;;0.25;;
39222;SDS011;24936;46.328;11.026;2023-06-24T08:02:13;0.55;;;0.25;;
39222;SDS011;24936;46.328;11.026;2023-06-24T08:04:38;0.77;;;0.20;;
39222;SDS011;24936;46.328;11.026;2023-06-24T08:07:04;0.30;;;0.20;;
39222;SDS011;24936;46.328;11.026;2023-06-24T08:09:30;0.63;;;0.28;;
39222;SDS011;24936;46.328;11.026;2023-06-24T08:11:55;0.40;;;0.30;;
39222;SDS011;24936;46.328;11.026;2023-06-24T08:14:21;0.38;;;0.17;;
39222;SDS011;24936;46.328;11.026;2023-06-24T08:16:46;0.52;;;0.22;;
39222;SDS011;24936;46.328;11.026;2023-06-24T08:19:12;0.32;;;0.20;;
39222;SDS011;24936;46.328;11.026;2023-06-24T08:21:37;0.30;;;0.10;;
39222;SDS011;24936;46.328;11.026;2023-06-24T08:24:03;0.50;;;0.28;;
39222;SDS011;24936;46.328;11.026;2023-06-24T08:26:30;1.30;;;0.30;;
39222;SDS011;24936;46.328;11.026;2023-06-24T08:28:55;0.50;;;0.20;;
39222;SDS011;24936;46.328;11.026;2023-06-24T08:31:21;1.42;;;0.20;;
39222;SDS011;24936;46.328;11.026;2023-06-24T08:33:51;0.30;;;0.20;;
39222;SDS011;24936;46.328;11.026;2023-06-24T08:36:18;0.17;;;0.10;;
39222;SDS011;24936;46.328;11.026;2023-06-24T08:38:43;0.20;;;0.20;;
39222;SDS011;24936;46.328;11.026;2023-06-24T08:41:09;0.15;;;0.15;;
39222;SDS011;24936;46.328;11.026;2023-06-24T08:43:34;0.10;;;0.10;;
39222;SDS011;24936;46.328;11.026;2023-06-24T08:46:01;0.20;;;0.17;;
39222;SDS011;24936;46.328;11.026;2023-06-24T08:48:26;0.13;;;0.10;;
39222;SDS011;24936;46.328;11.026;2023-06-24T08:50:55;2.08;;;0.10;;
39222;SDS011;24936;46.328;11.026;2023-06-24T08:53:23;0.25;;;0.20;;
39222;SDS011;24936;46.328;11.026;2023-06-24T08:55:51;0.15;;;0.13;;
39222;SDS011;24936;46.328;11.026;2023-06-24T08:58:19;0.30;;;0.20;;
39222;SDS011;24936;46.328;11.026;2023-06-24T09:00:44;0.20;;;0.10;;
39222;SDS011;24936;46.328;11.026;2023-06-24T09:03:10;0.45;;;0.13;;
39222;SDS011;24936;46.328;11.026;2023-06-24T09:05:36;0.17;;;0.10;;
39222;SDS011;24936;46.328;11.026;2023-06-24T09:08:01;0.70;;;0.40;;
39222;SDS011;24936;46.328;11.026;2023-06-24T09:10:34;0.32;;;0.30;;
39222;SDS011;24936;46.328;11.026;2023-06-24T09:13:01;0.30;;;0.25;;
39222;SDS011;24936;46.328;11.026;2023-06-24T09:15:33;0.90;;;0.20;;
39222;SDS011;24936;46.328;11.026;2023-06-24T09:18:00;0.32;;;0.17;;
39222;SDS011;24936;46.328;11.026;2023-06-24T09:20:27;0.30;;;0.20;;
39222;SDS011;24936;46.328;11.026;2023-06-24T09:22:57;0.35;;;0.20;;
39222;SDS011;24936;46.328;11.026;2023-06-24T09:25:24;0.30;;;0.20;;
39222;SDS011;24936;46.328;11.026;2023-06-24T09:27:50;0.38;;;0.20;;
39222;SDS011;24936;46.328;11.026;2023-06-24T09:30:20;0.38;;;0.28;;
39222;SDS011;24936;46.328;11.026;2023-06-24T09:32:47;0.32;;;0.20;;
39222;SDS011;24936;46.328;11.026;2023-06-24T09:35:14;0.30;;;0.20;;
39222;SDS011;24936;46.328;11.026;2023-06-24T09:37:42;0.57;;;0.20;;
39222;SDS011;24936;46.328;11.026;2023-06-24T09:40:08;0.10;;;0.10;;
39222;SDS011;24936;46.328;11.026;2023-06-24T09:42:35;0.17;;;0.17;;
39222;SDS011;24936;46.328;11.026;2023-06-24T09:45:06;0.65;;;0.20;;
39222;SDS011;24936;46.328;11.026;2023-06-24T09:47:32;0.30;;;0.25;;
39222;SDS011;24936;46.328;11.026;2023-06-24T09:49:57;0.30;;;0.20;;
39222;SDS011;24936;46.328;11.026;2023-06-24T09:52:23;0.20;;;0.20;;
39222;SDS011;24936;46.328;11.026;2023-06-24T09:54:51;0.88;;;0.30;;
39222;SDS011;24936;46.328;11.026;2023-06-24T09:57:27;0.50;;;0.35;;
39222;SDS011;24936;46.328;11.026;2023-06-24T09:59:56;0.40;;;0.20;;
39222;SDS011;24936;46.328;11.026;2023-06-24T10:02:23;1.13;;;0.20;;
39222;SDS011;24936;46.328;11.026;2023-06-24T10:04:49;0.70;;;0.22;;
39222;SDS011;24936;46.328;11.026;2023-06-24T10:07:17;0.35;;;0.20;;
39222;SDS011;24936;46.328;11.026;2023-06-24T10:09:42;0.25;;;0.15;;
39222;SDS011;24936;46.328;11.026;2023-06-24T10:12:08;0.90;;;0.28;;
39222;SDS011;24936;46.328;11.026;2023-06-24T10:14:34;0.20;;;0.20;;
39222;SDS011;24936;46.328;11.026;2023-06-24T10:17:01;0.55;;;0.20;;
39222;SDS011;24936;46.328;11.026;2023-06-24T10:19:28;0.20;;;0.15;;
39222;SDS011;24936;46.328;11.026;2023-06-24T10:21:54;0.50;;;0.20;;
39222;SDS011;24936;46.328;11.026;2023-06-24T10:24:33;2.05;;;0.20;;
39222;SDS011;24936;46.328;11.026;2023-06-24T10:27:04;8.13;;;1.38;;
39222;SDS011;24936;46.328;11.026;2023-06-24T10:29:38;0.47;;;0.17;;
39222;SDS011;24936;46.328;11.026;2023-06-24T10:32:04;0.30;;;0.20;;
39222;SDS011;24936;46.328;11.026;2023-06-24T10:34:34;1.30;;;0.30;;
39222;SDS011;24936;46.328;11.026;2023-06-24T10:37:19;0.38;;;0.20;;
39222;SDS011;24936;46.328;11.026;2023-06-24T10:44:47;0.22;;;0.20;;
39222;SDS011;24936;46.328;11.026;2023-06-24T10:47:13;0.28;;;0.20;;
39222;SDS011;24936;46.328;11.026;2023-06-24T10:49:39;0.22;;;0.20;;
39222;SDS011;24936;46.328;11.026;2023-06-24T10:52:06;0.93;;;0.28;;
39222;SDS011;24936;46.328;11.026;2023-06-24T10:54:33;2.17;;;0.20;;
39222;SDS011;24936;46.328;11.026;2023-06-24T10:56:58;0.20;;;0.20;;
39222;SDS011;24936;46.328;11.026;2023-06-24T10:59:24;0.20;;;0.20;;
39222;SDS011;24936;46.328;11.026;2023-06-24T11:01:53;0.35;;;0.20;;
39222;SDS011;24936;46.328;11.026;2023-06-24T11:04:19;0.20;;;0.20;;
39222;SDS011;24936;46.328;11.026;2023-06-24T11:07:05;0.30;;;0.20;;
39222;SDS011;24936;46.328;11.026;2023-06-24T11:09:30;0.30;;;0.20;;
39222;SDS011;24936;46.328;11.026;2023-06-24T11:11:55;0.30;;;0.20;;
39222;SDS011;24936;46.328;11.026;2023-06-24T11:14:21;0.25;;;0.10;;
39222;SDS011;24936;46.328;11.026;2023-06-24T11:16:46;0.63;;;0.20;;
39222;SDS011;24936;46.328;11.026;2023-06-24T11:19:12;0.45;;;0.20;;
39222;SDS011;24936;46.328;11.026;2023-06-24T11:21:38;1.55;;;0.20;;
39222;SDS011;24936;46.328;11.026;2023-06-24T11:24:03;0.20;;;0.20;;
39222;SDS011;24936;46.328;11.026;2023-06-24T11:26:29;0.10;;;0.10;;
39222;SDS011;24936;46.328;11.026;2023-06-24T11:28:55;0.13;;;0.10;;
39222;SDS011;24936;46.328;11.026;2023-06-24T11:31:27;0.55;;;0.20;;
39222;SDS011;24936;46.328;11.026;2023-06-24T11:33:52;1.20;;;0.38;;
39222;SDS011;24936;46.328;11.026;2023-06-24T11:36:18;0.20;;;0.20;;
39222;SDS011;24936;46.328;11.026;2023-06-24T11:38:47;1.35;;;0.30;;
39222;SDS011;24936;46.328;11.026;2023-06-24T11:41:14;0.22;;;0.10;;
39222;SDS011;24936;46.328;11.026;2023-06-24T11:43:48;0.20;;;0.20;;
39222;SDS011;24936;46.328;11.026;2023-06-24T11:46:24;0.30;;;0.22;;
39222;SDS011;24936;46.328;11.026;2023-06-24T11:48:50;0.22;;;0.20;;
39222;SDS011;24936;46.328;11.026;2023-06-24T11:51:16;0.30;;;0.30;;
39222;SDS011;24936;46.328;11.026;2023-06-24T11:53:44;0.35;;;0.30;;
39222;SDS011;24936;46.328;11.026;2023-06-24T11:56:13;0.73;;;0.30;;
39222;SDS011;24936;46.328;11.026;2023-06-24T11:58:39;0.22;;;0.20;;
39222;SDS011;24936;46.328;11.026;2023-06-24T12:01:07;0.40;;;0.30;;
39222;SDS011;24936;46.328;11.026;2023-06-24T12:03:33;0.30;;;0.20;;
39222;SDS011;24936;46.328;11.026;2023-06-24T12:05:59;1.90;;;0.30;;
39222;SDS011;24936;46.328;11.026;2023-06-24T12:08:24;0.40;;;0.30;;
39222;SDS011;24936;46.328;11.026;2023-06-24T12:10:51;0.30;;;0.20;;
39222;SDS011;24936;46.328;11.026;2023-06-24T12:13:17;0.28;;;0.20;;
39222;SDS011;24936;46.328;11.026;2023-06-24T12:15:42;0.30;;;0.30;;
39222;SDS011;24936;46.328;11.026;2023-06-24T12:18:08;0.30;;;0.30;;
39222;SDS011;24936;46.328;11.026;2023-06-24T12:20:34;0.32;;;0.30;;
39222;SDS011;24936;46.328;11.026;2023-06-24T12:23:01;0.93;;;0.68;;
39222;SDS011;24936;46.328;11.026;2023-06-24T12:25:28;0.28;;;0.20;;
39222;SDS011;24936;46.328;11.026;2023-06-24T12:27:54;0.70;;;0.30;;
39222;SDS011;24936;46.328;11.026;2023-06-24T12:30:19;1.17;;;0.20;;
39222;SDS011;24936;46.328;11.026;2023-06-24T12:32:46;0.32;;;0.30;;
39222;SDS011;24936;46.328;11.026;2023-06-24T12:35:12;0.50;;;0.20;;
39222;SDS011;24936;46.328;11.026;2023-06-24T12:37:37;0.70;;;0.30;;
39222;SDS011;24936;46.328;11.026;2023-06-24T12:40:03;0.30;;;0.30;;
39222;SDS011;24936;46.328;11.026;2023-06-24T12:42:29;0.30;;;0.20;;
39222;SDS011;24936;46.328;11.026;2023-06-24T12:44:55;0.38;;;0.28;;
39222;SDS011;24936;46.328;11.026;2023-06-24T12:47:21;0.47;;;0.40;;
39222;SDS011;24936;46.328;11.026;2023-06-24T12:49:47;0.50;;;0.30;;
39222;SDS011;24936;46.328;11.026;2023-06-24T12:52:13;0.65;;;0.40;;
39222;SDS011;24936;46.328;11.026;2023-06-24T12:54:39;0.52;;;0.30;;
39222;SDS011;24936;46.328;11.026;2023-06-24T12:57:05;0.30;;;0.30;;
39222;SDS011;24936;46.328;11.026;2023-06-24T12:59:31;0.50;;;0.30;;
39222;SDS011;24936;46.328;11.026;2023-06-24T13:01:56;0.38;;;0.30;;
39222;SDS011;24936;46.328;11.026;2023-06-24T13:04:22;0.98;;;0.35;;
39222;SDS011;24936;46.328;11.026;2023-06-24T13:06:49;0.75;;;0.30;;
39222;SDS011;24936;46.328;11.026;2023-06-24T13:09:16;0.28;;;0.17;;
39222;SDS011;24936;46.328;11.026;2023-06-24T13:11:41;1.10;;;0.20;;
39222;SDS011;24936;46.328;11.026;2023-06-24T13:14:07;0.20;;;0.20;;
39222;SDS011;24936;46.328;11.026;2023-06-24T13:16:35;0.40;;;0.30;;
39222;SDS011;24936;46.328;11.026;2023-06-24T13:19:01;0.35;;;0.20;;
39222;SDS011;24936;46.328;11.026;2023-06-24T13:21:27;0.20;;;0.20;;
39222;SDS011;24936;46.328;11.026;2023-06-24T13:23:53;0.30;;;0.20;;
39222;SDS011;24936;46.328;11.026;2023-06-24T13:26:18;0.47;;;0.30;;
39222;SDS011;24936;46.328;11.026;2023-06-24T13:28:44;1.45;;;0.22;;
39222;SDS011;24936;46.328;11.026;2023-06-24T13:31:09;0.20;;;0.20;;
39222;SDS011;24936;46.328;11.026;2023-06-24T13:33:35;0.70;;;0.47;;
39222;SDS011;24936;46.328;11.026;2023-06-24T13:36:00;0.38;;;0.30;;
39222;SDS011;24936;46.328;11.026;2023-06-24T13:38:27;0.28;;;0.20;;
39222;SDS011;24936;46.328;11.026;2023-06-24T13:40:53;0.57;;;0.30;;
39222;SDS011;24936;46.328;11.026;2023-06-24T13:43:18;0.40;;;0.30;;
39222;SDS011;24936;46.328;11.026;2023-06-24T13:45:44;0.55;;;0.32;;
39222;SDS011;24936;46.328;11.026;2023-06-24T13:48:09;2.58;;;0.30;;
39222;SDS011;24936;46.328;11.026;2023-06-24T13:50:35;1.02;;;0.20;;
39222;SDS011;24936;46.328;11.026;2023-06-24T13:53:00;0.73;;;0.38;;
39222;SDS011;24936;46.328;11.026;2023-06-24T13:55:26;0.63;;;0.30;;
39222;SDS011;24936;46.328;11.026;2023-06-24T13:57:51;0.30;;;0.20;;
39222;SDS011;24936;46.328;11.026;2023-06-24T14:00:17;0.93;;;0.30;;
39222;SDS011;24936;46.328;11.026;2023-06-24T14:02:43;0.60;;;0.30;;
39222;SDS011;24936;46.328;11.026;2023-06-24T14:05:08;0.38;;;0.22;;
39222;SDS011;24936;46.328;11.026;2023-06-24T14:07:34;0.70;;;0.40;;
39222;SDS011;24936;46.328;11.026;2023-06-24T14:09:59;0.45;;;0.30;;
39222;SDS011;24936;46.328;11.026;2023-06-24T14:12:25;0.77;;;0.40;;
39222;SDS011;24936;46.328;11.026;2023-06-24T14:14:50;0.55;;;0.30;;
39222;SDS011;24936;46.328;11.026;2023-06-24T14:17:16;2.17;;;0.30;;
39222;SDS011;24936;46.328;11.026;2023-06-24T14:19:42;0.60;;;0.30;;
39222;SDS011;24936;46.328;11.026;2023-06-24T14:22:07;0.47;;;0.20;;
39222;SDS011;24936;46.328;11.026;2023-06-24T14:24:33;0.40;;;0.30;;
39222;SDS011;24936;46.328;11.026;2023-06-24T14:27:00;0.40;;;0.30;;
39222;SDS011;24936;46.328;11.026;2023-06-24T14:29:26;0.30;;;0.20;;
39222;SDS011;24936;46.328;11.026;2023-06-24T14:31:52;0.50;;;0.30;;
39222;SDS011;24936;46.328;11.026;2023-06-24T14:34:17;0.80;;;0.40;;
39222;SDS011;24936;46.328;11.026;2023-06-24T14:36:43;0.50;;;0.22;;
39222;SDS011;24936;46.328;11.026;2023-06-24T14:39:09;0.52;;;0.30;;
39222;SDS011;24936;46.328;11.026;2023-06-24T14:41:34;0.40;;;0.30;;
39222;SDS011;24936;46.328;11.026;2023-06-24T14:44:00;0.60;;;0.40;;
39222;SDS011;24936;46.328;11.026;2023-06-24T14:46:26;0.38;;;0.25;;
39222;SDS011;24936;46.328;11.026;2023-06-24T14:48:51;1.65;;;0.30;;
39222;SDS011;24936;46.328;11.026;2023-06-24T14:51:16;0.55;;;0.30;;
39222;SDS011;24936;46.328;11.026;2023-06-24T14:53:42;0.30;;;0.30;;
39222;SDS011;24936;46.328;11.026;2023-06-24T14:56:07;0.68;;;0.30;;
39222;SDS011;24936;46.328;11.026;2023-06-24T14:58:33;0.55;;;0.40;;
39222;SDS011;24936;46.328;11.026;2023-06-24T15:00:59;1.02;;;0.40;;
39222;SDS011;24936;46.328;11.026;2023-06-24T15:03:24;0.47;;;0.30;;
39222;SDS011;24936;46.328;11.026;2023-06-24T15:05:49;0.50;;;0.40;;
39222;SDS011;24936;46.328;11.026;2023-06-24T15:08:15;0.30;;;0.30;;
39222;SDS011;24936;46.328;11.026;2023-06-24T15:10:40;0.30;;;0.28;;
39222;SDS011;24936;46.328;11.026;2023-06-24T15:13:06;1.48;;;0.35;;
39222;SDS011;24936;46.328;11.026;2023-06-24T15:15:31;0.60;;;0.40;;
39222;SDS011;24936;46.328;11.026;2023-06-24T15:17:57;0.73;;;0.40;;
39222;SDS011;24936;46.328;11.026;2023-06-24T15:20:22;0.20;;;0.20;;
39222;SDS011;24936;46.328;11.026;2023-06-24T15:22:48;0.20;;;0.20;;
39222;SDS011;24936;46.328;11.026;2023-06-24T15:25:13;0.40;;;0.30;;
39222;SDS011;24936;46.328;11.026;2023-06-24T15:27:39;0.30;;;0.20;;
39222;SDS011;24936;46.328;11.026;2023-06-24T15:30:04;0.30;;;0.20;;
39222;SDS011;24936;46.328;11.026;2023-06-24T15:32:30;0.68;;;0.30;;
39222;SDS011;24936;46.328;11.026;2023-06-24T15:34:56;0.65;;;0.28;;
39222;SDS011;24936;46.328;11.026;2023-06-24T15:37:21;2.10;;;0.30;;
39222;SDS011;24936;46.328;11.026;2023-06-24T15:39:48;1.08;;;0.30;;
39222;SDS011;24936;46.328;11.026;2023-06-24T15:42:13;0.30;;;0.28;;
39222;SDS011;24936;46.328;11.026;2023-06-24T15:44:39;0.45;;;0.30;;
39222;SDS011;24936;46.328;11.026;2023-06-24T15:47:05;0.60;;;0.30;;
39222;SDS011;24936;46.328;11.026;2023-06-24T15:49:30;0.77;;;0.32;;
39222;SDS011;24936;46.328;11.026;2023-06-24T15:51:56;1.20;;;0.28;;
39222;SDS011;24936;46.328;11.026;2023-06-24T15:54:21;0.88;;;0.30;;
39222;SDS011;24936;46.328;11.026;2023-06-24T15:56:47;1.02;;;0.30;;
39222;SDS011;24936;46.328;11.026;2023-06-24T15:59:12;0.68;;;0.38;;
39222;SDS011;24936;46.328;11.026;2023-06-24T16:01:37;0.77;;;0.40;;
39222;SDS011;24936;46.328;11.026;2023-06-24T16:04:03;2.38;;;0.30;;
39222;SDS011;24936;46.328;11.026;2023-06-24T16:06:29;0.52;;;0.30;;
39222;SDS011;24936;46.328;11.026;2023-06-24T16:08:54;4.13;;;0.30;;
39222;SDS011;24936;46.328;11.026;2023-06-24T16:11:21;0.50;;;0.20;;
39222;SDS011;24936;46.328;11.026;2023-06-24T16:13:47;2.67;;;0.28;;
39222;SDS011;24936;46.328;11.026;2023-06-24T16:16:12;0.70;;;0.20;;
39222;SDS011;24936;46.328;11.026;2023-06-24T16:18:38;0.57;;;0.28;;
39222;SDS011;24936;46.328;11.026;2023-06-24T16:21:04;0.60;;;0.45;;
39222;SDS011;24936;46.328;11.026;2023-06-24T16:23:30;0.70;;;0.30;;
39222;SDS011;24936;46.328;11.026;2023-06-24T16:25:55;0.22;;;0.20;;
39222;SDS011;24936;46.328;11.026;2023-06-24T16:28:21;2.05;;;0.20;;
39222;SDS011;24936;46.328;11.026;2023-06-24T16:30:46;0.32;;;0.20;;
39222;SDS011;24936;46.328;11.026;2023-06-24T16:33:12;0.80;;;0.20;;
39222;SDS011;24936;46.328;11.026;2023-06-24T16:35:38;0.30;;;0.20;;
39222;SDS011;24936;46.328;11.026;2023-06-24T16:38:03;0.65;;;0.25;;
39222;SDS011;24936;46.328;11.026;2023-06-24T16:40:29;0.50;;;0.30;;